createdAt,value
2018-12-24T00:00:31.986Z,458
2018-12-24T00:01:39.189Z,459
2018-12-24T00:02:46.403Z,461
2018-12-24T00:03:53.604Z,461
2018-12-24T00:05:00.539Z,458
2018-12-24T00:06:07.467Z,461
2018-12-24T00:07:14.664Z,459
2018-12-24T00:08:21.860Z,459
2018-12-24T00:09:29.059Z,455
2018-12-24T00:10:36.266Z,458
2018-12-24T00:11:43.477Z,457
2018-12-24T00:12:50.672Z,457
2018-12-24T00:13:57.954Z,460
2018-12-24T00:15:05.156Z,455
2018-12-24T00:16:12.371Z,455
2018-12-24T00:17:19.777Z,457
2018-12-24T00:18:26.977Z,456
2018-12-24T00:19:36.322Z,458
2018-12-24T00:20:43.518Z,458
2018-12-24T00:21:50.718Z,458
2018-12-24T00:22:57.999Z,459
2018-12-24T00:24:05.201Z,457
2018-12-24T00:25:12.121Z,457
2018-12-24T00:26:19.316Z,456
2018-12-24T00:27:26.246Z,457
2018-12-24T00:28:33.167Z,456
2018-12-24T00:29:40.366Z,455
2018-12-24T00:30:47.292Z,457
2018-12-24T00:31:54.489Z,456
2018-12-24T00:33:01.688Z,455
2018-12-24T00:34:08.883Z,457
2018-12-24T00:35:16.088Z,457
2018-12-24T00:36:23.290Z,457
2018-12-24T00:37:30.489Z,457
2018-12-24T00:38:37.411Z,454
2018-12-24T00:39:44.665Z,457
2018-12-24T00:40:51.865Z,455
2018-12-24T00:41:58.787Z,456
2018-12-24T00:43:05.985Z,455
2018-12-24T00:44:13.184Z,457
2018-12-24T00:45:20.434Z,455
2018-12-24T00:46:27.634Z,458
2018-12-24T00:47:34.830Z,457
2018-12-24T00:48:42.027Z,458
2018-12-24T00:49:49.224Z,456
2018-12-24T00:50:56.169Z,458
2018-12-24T00:52:03.087Z,457
2018-12-24T00:53:10.278Z,458
2018-12-24T00:54:17.198Z,458
2018-12-24T00:55:24.397Z,458
2018-12-24T00:56:31.333Z,460
2018-12-24T00:57:38.257Z,458
2018-12-24T00:58:45.464Z,459
2018-12-24T00:59:52.666Z,458
2018-12-24T01:01:14.234Z,460
2018-12-24T01:02:21.429Z,458
2018-12-24T01:03:28.625Z,457
2018-12-24T01:04:35.820Z,457
2018-12-24T01:05:43.028Z,458
2018-12-24T01:06:50.228Z,458
2018-12-24T01:07:57.427Z,458
2018-12-24T01:09:04.623Z,457
2018-12-24T01:10:11.753Z,459
2018-12-24T01:11:18.692Z,459
2018-12-24T01:12:25.646Z,459
2018-12-24T01:13:32.844Z,461
2018-12-24T01:14:40.041Z,462
2018-12-24T01:15:47.237Z,460
2018-12-24T01:16:54.438Z,459
2018-12-24T01:18:01.638Z,459
2018-12-24T01:19:08.915Z,458
2018-12-24T01:20:16.180Z,460
2018-12-24T01:21:23.110Z,459
2018-12-24T01:22:30.374Z,459
2018-12-24T01:23:37.574Z,457
2018-12-24T01:24:44.770Z,457
2018-12-24T01:25:51.415Z,456
2018-12-24T01:26:58.336Z,458
2018-12-24T01:28:05.532Z,456
2018-12-24T01:29:12.731Z,455
2018-12-24T01:30:19.935Z,457
2018-12-24T01:31:26.600Z,458
2018-12-24T01:32:33.804Z,457
2018-12-24T01:33:40.734Z,458
2018-12-24T01:34:47.932Z,458
2018-12-24T01:35:55.121Z,457
2018-12-24T01:37:02.327Z,456
2018-12-24T01:38:09.246Z,456
2018-12-24T01:39:16.174Z,457
2018-12-24T01:40:23.369Z,456
2018-12-24T01:41:30.569Z,458
2018-12-24T01:42:37.765Z,457
2018-12-24T01:43:44.973Z,456
2018-12-24T01:44:51.890Z,457
2018-12-24T01:45:58.550Z,457
2018-12-24T01:47:05.200Z,459
2018-12-24T01:48:12.397Z,458
2018-12-24T01:49:19.597Z,457
2018-12-24T01:50:26.626Z,458
2018-12-24T01:51:33.824Z,460
2018-12-24T01:52:40.748Z,460
2018-12-24T01:53:47.942Z,458
2018-12-24T01:54:55.141Z,459
2018-12-24T01:56:02.338Z,459
2018-12-24T01:57:09.260Z,460
2018-12-24T01:58:16.457Z,459
2018-12-24T01:59:23.692Z,461
2018-12-24T02:00:30.895Z,462
2018-12-24T02:01:38.193Z,462
2018-12-24T02:02:45.117Z,462
2018-12-24T02:03:52.046Z,460
2018-12-24T02:04:59.239Z,463
2018-12-24T02:06:06.436Z,462
2018-12-24T02:07:13.662Z,463
2018-12-24T02:08:20.864Z,461
2018-12-24T02:09:28.058Z,463
2018-12-24T02:10:35.257Z,462
2018-12-24T02:11:42.463Z,463
2018-12-24T02:12:49.385Z,461
2018-12-24T02:13:56.312Z,462
2018-12-24T02:15:03.511Z,462
2018-12-24T02:16:10.436Z,464
2018-12-24T02:17:17.640Z,463
2018-12-24T02:18:24.570Z,463
2018-12-24T02:19:31.773Z,463
2018-12-24T02:20:38.970Z,464
2018-12-24T02:21:46.170Z,463
2018-12-24T02:22:53.369Z,464
2018-12-24T02:24:00.576Z,465
2018-12-24T02:25:07.772Z,465
2018-12-24T02:26:14.696Z,465
2018-12-24T02:27:21.893Z,467
2018-12-24T02:28:28.817Z,468
2018-12-24T02:29:35.471Z,467
2018-12-24T02:30:42.665Z,468
2018-12-24T02:31:49.865Z,468
2018-12-24T02:32:57.066Z,468
2018-12-24T02:34:04.280Z,467
2018-12-24T02:35:11.477Z,468
2018-12-24T02:36:18.675Z,467
2018-12-24T02:37:25.878Z,468
2018-12-24T02:38:33.075Z,468
2018-12-24T02:39:40.007Z,466
2018-12-24T02:40:47.206Z,466
2018-12-24T02:41:54.402Z,469
2018-12-24T02:43:01.331Z,469
2018-12-24T02:44:08.531Z,469
2018-12-24T02:45:15.456Z,468
2018-12-24T02:46:22.656Z,467
2018-12-24T02:47:29.861Z,469
2018-12-24T02:48:37.056Z,468
2018-12-24T02:49:44.380Z,467
2018-12-24T02:50:51.570Z,465
2018-12-24T02:51:58.765Z,465
2018-12-24T02:53:05.965Z,468
2018-12-24T02:54:12.982Z,465
2018-12-24T02:55:19.908Z,465
2018-12-24T02:56:26.847Z,467
2018-12-24T02:57:34.044Z,465
2018-12-24T02:58:41.246Z,465
2018-12-24T02:59:48.447Z,467
2018-12-24T03:00:55.375Z,466
2018-12-24T03:02:02.569Z,467
2018-12-24T03:03:09.775Z,468
2018-12-24T03:04:17.033Z,468
2018-12-24T03:05:23.684Z,468
2018-12-24T03:06:30.880Z,467
2018-12-24T03:07:38.082Z,465
2018-12-24T03:08:45.281Z,467
2018-12-24T03:09:52.479Z,467
2018-12-24T03:10:59.677Z,467
2018-12-24T03:12:06.878Z,467
2018-12-24T03:13:14.075Z,470
2018-12-24T03:14:21.273Z,469
2018-12-24T03:15:42.846Z,471
2018-12-24T03:16:50.131Z,470
2018-12-24T03:17:57.055Z,470
2018-12-24T03:19:04.250Z,469
2018-12-24T03:20:11.176Z,471
2018-12-24T03:21:18.384Z,473
2018-12-24T03:22:25.315Z,474
2018-12-24T03:23:32.231Z,473
2018-12-24T03:24:39.426Z,473
2018-12-24T03:25:46.628Z,473
2018-12-24T03:26:53.549Z,472
2018-12-24T03:28:00.470Z,472
2018-12-24T03:29:07.668Z,473
2018-12-24T03:30:14.873Z,474
2018-12-24T03:31:22.072Z,475
2018-12-24T03:32:29.272Z,474
2018-12-24T03:33:36.506Z,474
2018-12-24T03:34:43.700Z,474
2018-12-24T03:35:50.641Z,473
2018-12-24T03:36:57.987Z,473
2018-12-24T03:38:05.185Z,476
2018-12-24T03:39:12.378Z,475
2018-12-24T03:40:19.577Z,477
2018-12-24T03:41:26.769Z,476
2018-12-24T03:42:33.692Z,477
2018-12-24T03:43:40.893Z,477
2018-12-24T03:44:48.090Z,476
2018-12-24T03:45:55.293Z,476
2018-12-24T03:47:02.227Z,476
2018-12-24T03:48:09.429Z,475
2018-12-24T03:49:16.633Z,476
2018-12-24T03:50:23.828Z,476
2018-12-24T03:51:31.025Z,474
2018-12-24T03:52:38.221Z,475
2018-12-24T03:53:45.420Z,475
2018-12-24T03:54:52.750Z,475
2018-12-24T03:55:59.953Z,474
2018-12-24T03:57:07.147Z,474
2018-12-24T03:58:14.345Z,474
2018-12-24T03:59:21.543Z,472
2018-12-24T04:00:28.762Z,474
2018-12-24T04:01:35.958Z,472
2018-12-24T04:02:43.156Z,472
2018-12-24T04:03:50.355Z,472
2018-12-24T04:04:57.561Z,472
2018-12-24T04:06:04.758Z,472
2018-12-24T04:07:11.954Z,471
2018-12-24T04:08:18.885Z,470
2018-12-24T04:09:25.809Z,471
2018-12-24T04:10:33.004Z,471
2018-12-24T04:11:39.940Z,470
2018-12-24T04:12:47.136Z,470
2018-12-24T04:13:54.059Z,470
2018-12-24T04:15:00.979Z,470
2018-12-24T04:16:08.182Z,469
2018-12-24T04:17:15.377Z,469
2018-12-24T04:18:22.575Z,469
2018-12-24T04:19:29.769Z,468
2018-12-24T04:20:37.045Z,470
2018-12-24T04:21:44.242Z,469
2018-12-24T04:22:51.443Z,469
2018-12-24T04:23:58.734Z,469
2018-12-24T04:25:05.931Z,469
2018-12-24T04:26:13.152Z,469
2018-12-24T04:27:20.075Z,466
2018-12-24T04:28:27.270Z,467
2018-12-24T04:29:34.479Z,466
2018-12-24T04:30:41.678Z,466
2018-12-24T04:31:48.880Z,466
2018-12-24T04:32:56.078Z,465
2018-12-24T04:34:03.000Z,465
2018-12-24T04:35:10.200Z,464
2018-12-24T04:36:17.399Z,465
2018-12-24T04:37:24.597Z,464
2018-12-24T04:38:31.790Z,464
2018-12-24T04:39:38.984Z,465
2018-12-24T23:00:06.350Z,482
2018-12-24T23:01:13.287Z,479
2018-12-24T23:02:20.485Z,481
2018-12-24T23:03:27.700Z,482
2018-12-24T23:04:34.625Z,482
2018-12-24T23:05:43.850Z,482
2018-12-24T23:06:51.163Z,482
2018-12-24T23:07:57.829Z,481
2018-12-24T23:09:05.033Z,482
2018-12-24T23:10:12.263Z,482
2018-12-24T23:11:19.479Z,482
2018-12-24T23:12:26.412Z,481
2018-12-24T23:13:33.625Z,481
2018-12-24T23:14:40.561Z,481
2018-12-24T23:15:47.771Z,482
2018-12-24T23:16:54.974Z,481
2018-12-24T23:18:01.642Z,482
2018-12-24T23:19:08.843Z,481
2018-12-24T23:20:16.051Z,481
2018-12-24T23:21:22.992Z,481
2018-12-24T23:22:30.194Z,481
2018-12-24T23:23:37.404Z,482
2018-12-24T23:24:44.607Z,480
2018-12-24T23:25:51.262Z,480
2018-12-24T23:26:58.470Z,481
2018-12-24T23:28:05.671Z,480
2018-12-24T23:29:12.612Z,480
2018-12-24T23:30:19.823Z,481
2018-12-24T23:31:26.757Z,479
2018-12-24T23:32:33.965Z,480
2018-12-24T23:33:40.615Z,478
2018-12-24T23:34:48.017Z,476
2018-12-24T23:35:54.944Z,471
2018-12-24T23:37:02.141Z,468
2018-12-24T23:38:09.338Z,468
2018-12-24T23:39:16.539Z,466
2018-12-24T23:40:23.727Z,467
2018-12-24T23:41:30.930Z,466
2018-12-24T23:42:38.117Z,466
2018-12-24T23:43:45.313Z,467
2018-12-24T23:44:52.511Z,466
2018-12-24T23:45:59.437Z,465
2018-12-24T23:47:06.630Z,465
2018-12-24T23:48:13.830Z,464
2018-12-24T23:49:21.023Z,464
2018-12-24T23:50:28.215Z,465
2018-12-24T23:51:35.403Z,464
2018-12-24T23:52:42.596Z,464
2018-12-24T23:53:49.864Z,463
2018-12-24T23:54:57.108Z,463
2018-12-24T23:56:04.322Z,463
2018-12-24T23:57:11.516Z,463
2018-12-24T23:58:18.709Z,463
2018-12-24T23:59:25.902Z,463
